sensor_id;sensor_type;location;lat;lon;timestamp;pressure;altitude;pressure_sealevel;temperature;humidity
58975;BME280;44751;52.236;5.178;2023-04-25T00:01:49;100940.72;;;5.99;100.00
58975;BME280;44751;52.236;5.178;2023-04-25T00:04:16;100945.94;;;6.01;100.00
58975;BME280;44751;52.236;5.178;2023-04-25T00:06:42;100945.53;;;6.05;100.00
58975;BME280;44751;52.236;5.178;2023-04-25T00:09:09;100936.66;;;6.05;100.00
58975;BME280;44751;52.236;5.178;2023-04-25T00:11:56;100947.50;;;6.03;100.00
58975;BME280;44751;52.236;5.178;2023-04-25T00:14:31;100930.72;;;6.01;100.00
58975;BME280;44751;52.236;5.178;2023-04-25T00:17:12;100941.59;;;6.10;100.00
58975;BME280;44751;52.236;5.178;2023-04-25T00:30:28;100945.59;;;5.86;100.00
58975;BME280;44751;52.236;5.178;2023-04-25T00:32:55;100944.28;;;5.90;100.00
58975;BME280;44751;52.236;5.178;2023-04-25T00:35:35;100948.13;;;5.87;100.00
58975;BME280;44751;52.236;5.178;2023-04-25T00:38:04;100949.72;;;5.70;100.00
58975;BME280;44751;52.236;5.178;2023-04-25T00:40:31;100951.50;;;5.79;100.00
58975;BME280;44751;52.236;5.178;2023-04-25T00:57:51;100954.19;;;5.69;100.00
58975;BME280;44751;52.236;5.178;2023-04-25T01:00:18;100948.44;;;5.74;100.00
58975;BME280;44751;52.236;5.178;2023-04-25T01:02:46;100955.34;;;5.67;100.00
58975;BME280;44751;52.236;5.178;2023-04-25T01:05:15;100958.19;;;5.55;100.00
58975;BME280;44751;52.236;5.178;2023-04-25T01:07:44;100956.22;;;5.48;100.00
58975;BME280;44751;52.236;5.178;2023-04-25T01:10:33;100955.63;;;5.54;100.00
58975;BME280;44751;52.236;5.178;2023-04-25T01:13:04;100957.91;;;5.59;100.00
58975;BME280;44751;52.236;5.178;2023-04-25T01:16:09;100953.69;;;5.46;100.00
58975;BME280;44751;52.236;5.178;2023-04-25T01:19:27;100956.25;;;5.28;100.00
58975;BME280;44751;52.236;5.178;2023-04-25T01:22:34;100959.47;;;5.32;100.00
58975;BME280;44751;52.236;5.178;2023-04-25T01:29:01;100966.53;;;5.23;100.00
58975;BME280;44751;52.236;5.178;2023-04-25T01:31:37;100967.50;;;5.12;100.00
58975;BME280;44751;52.236;5.178;2023-04-25T01:34:13;100962.88;;;5.24;100.00
58975;BME280;44751;52.236;5.178;2023-04-25T01:36:41;100970.47;;;5.19;100.00
58975;BME280;44751;52.236;5.178;2023-04-25T01:39:08;100969.03;;;5.24;100.00
58975;BME280;44751;52.236;5.178;2023-04-25T01:41:52;100972.28;;;5.18;100.00
58975;BME280;44751;52.236;5.178;2023-04-25T01:44:35;100966.53;;;5.13;100.00
58975;BME280;44751;52.236;5.178;2023-04-25T01:47:17;100969.88;;;5.05;100.00
58975;BME280;44751;52.236;5.178;2023-04-25T01:50:13;100976.22;;;5.04;100.00
58975;BME280;44751;52.236;5.178;2023-04-25T01:52:59;100985.78;;;4.97;100.00
58975;BME280;44751;52.236;5.178;2023-04-25T01:55:52;100974.53;;;4.83;100.00
58975;BME280;44751;52.236;5.178;2023-04-25T01:58:28;100981.56;;;4.84;100.00
58975;BME280;44751;52.236;5.178;2023-04-25T02:01:06;100980.69;;;4.84;100.00
58975;BME280;44751;52.236;5.178;2023-04-25T02:03:34;100993.09;;;4.85;100.00
58975;BME280;44751;52.236;5.178;2023-04-25T02:06:01;100996.31;;;4.78;100.00
58975;BME280;44751;52.236;5.178;2023-04-25T02:08:30;100993.53;;;4.90;100.00
58975;BME280;44751;52.236;5.178;2023-04-25T02:11:01;100988.56;;;4.75;100.00
58975;BME280;44751;52.236;5.178;2023-04-25T02:13:28;100995.91;;;4.83;100.00
58975;BME280;44751;52.236;5.178;2023-04-25T02:15:55;100992.66;;;4.80;100.00
58975;BME280;44751;52.236;5.178;2023-04-25T02:18:50;100992.09;;;4.76;100.00
58975;BME280;44751;52.236;5.178;2023-04-25T06:44:38;101202.78;;;6.43;100.00
58975;BME280;44751;52.236;5.178;2023-04-25T06:47:05;101206.56;;;6.61;100.00
58975;BME280;44751;52.236;5.178;2023-04-25T06:49:31;101210.63;;;6.75;100.00
58975;BME280;44751;52.236;5.178;2023-04-25T06:51:59;101222.56;;;7.00;100.00
58975;BME280;44751;52.236;5.178;2023-04-25T07:38:31;101248.28;;;8.05;100.00
58975;BME280;44751;52.236;5.178;2023-04-25T07:40:59;101262.25;;;8.27;100.00
58975;BME280;44751;52.236;5.178;2023-04-25T07:43:26;101260.78;;;8.33;100.00
58975;BME280;44751;52.236;5.178;2023-04-25T07:45:52;101266.88;;;8.35;100.00
58975;BME280;44751;52.236;5.178;2023-04-25T07:48:33;101262.91;;;9.10;100.00
58975;BME280;44751;52.236;5.178;2023-04-25T07:50:59;101270.84;;;9.12;100.00
58975;BME280;44751;52.236;5.178;2023-04-25T07:53:26;101292.59;;;8.37;100.00
58975;BME280;44751;52.236;5.178;2023-04-25T07:56:03;101281.75;;;7.65;100.00
58975;BME280;44751;52.236;5.178;2023-04-25T07:58:29;101285.69;;;7.42;100.00
58975;BME280;44751;52.236;5.178;2023-04-25T08:00:59;101290.22;;;7.32;100.00
58975;BME280;44751;52.236;5.178;2023-04-25T08:03:30;101293.16;;;7.10;100.00
58975;BME280;44751;52.236;5.178;2023-04-25T08:11:09;101294.00;;;6.91;100.00
58975;BME280;44751;52.236;5.178;2023-04-25T08:13:48;101305.56;;;7.12;100.00
58975;BME280;44751;52.236;5.178;2023-04-25T08:16:33;101313.00;;;8.58;100.00
58975;BME280;44751;52.236;5.178;2023-04-25T08:19:00;101308.31;;;10.26;100.00
58975;BME280;44751;52.236;5.178;2023-04-25T08:21:28;101311.88;;;11.18;100.00
58975;BME280;44751;52.236;5.178;2023-04-25T08:23:57;101314.56;;;11.75;100.00
58975;BME280;44751;52.236;5.178;2023-04-25T08:26:24;101308.56;;;11.48;100.00
58975;BME280;44751;52.236;5.178;2023-04-25T08:28:59;101314.81;;;12.29;100.00
58975;BME280;44751;52.236;5.178;2023-04-25T08:31:38;101314.69;;;12.92;100.00
58975;BME280;44751;52.236;5.178;2023-04-25T08:34:16;101310.09;;;12.22;100.00
58975;BME280;44751;52.236;5.178;2023-04-25T08:36:43;101329.88;;;12.93;100.00
58975;BME280;44751;52.236;5.178;2023-04-25T08:39:12;101326.75;;;13.04;99.81
58975;BME280;44751;52.236;5.178;2023-04-25T08:41:42;101343.47;;;12.70;97.42
58975;BME280;44751;52.236;5.178;2023-04-25T08:44:12;101344.06;;;12.57;98.15
58975;BME280;44751;52.236;5.178;2023-04-25T08:46:39;101342.25;;;13.11;100.00
58975;BME280;44751;52.236;5.178;2023-04-25T08:49:07;101337.72;;;12.64;92.06
58975;BME280;44751;52.236;5.178;2023-04-25T08:51:36;101354.44;;;13.30;97.26
58975;BME280;44751;52.236;5.178;2023-04-25T08:54:10;101343.41;;;11.91;89.60
58975;BME280;44751;52.236;5.178;2023-04-25T08:56:43;101351.19;;;11.86;95.67
58975;BME280;44751;52.236;5.178;2023-04-25T08:59:11;101360.81;;;11.32;94.33
58975;BME280;44751;52.236;5.178;2023-04-25T09:01:41;101350.00;;;11.88;92.32
58975;BME280;44751;52.236;5.178;2023-04-25T09:04:07;101369.41;;;11.35;93.88
58975;BME280;44751;52.236;5.178;2023-04-25T09:06:34;101372.63;;;10.72;95.76
58975;BME280;44751;52.236;5.178;2023-04-25T09:09:06;101376.94;;;9.89;96.15
58975;BME280;44751;52.236;5.178;2023-04-25T09:11:40;101383.94;;;9.73;99.66
58975;BME280;44751;52.236;5.178;2023-04-25T09:14:17;101394.16;;;9.61;100.00
58975;BME280;44751;52.236;5.178;2023-04-25T09:19:35;101408.50;;;8.99;100.00
58975;BME280;44751;52.236;5.178;2023-04-25T09:22:05;101403.97;;;8.99;100.00
58975;BME280;44751;52.236;5.178;2023-04-25T09:27:10;101401.59;;;8.78;100.00
58975;BME280;44751;52.236;5.178;2023-04-25T09:29:57;101404.59;;;8.93;100.00
58975;BME280;44751;52.236;5.178;2023-04-25T09:32:45;101412.00;;;9.36;100.00
58975;BME280;44751;52.236;5.178;2023-04-25T09:35:32;101411.84;;;9.64;100.00
58975;BME280;44751;52.236;5.178;2023-04-25T09:38:44;101412.44;;;10.62;99.59
58975;BME280;44751;52.236;5.178;2023-04-25T09:41:25;101413.13;;;10.81;96.53
58975;BME280;44751;52.236;5.178;2023-04-25T09:44:04;101408.09;;;10.78;91.44
58975;BME280;44751;52.236;5.178;2023-04-25T09:46:34;101427.81;;;11.11;91.89
58975;BME280;44751;52.236;5.178;2023-04-25T09:49:08;101423.78;;;11.41;92.96
58975;BME280;44751;52.236;5.178;2023-04-25T09:51:37;101434.91;;;11.54;93.65
58975;BME280;44751;52.236;5.178;2023-04-25T09:54:07;101443.25;;;12.09;89.44
58975;BME280;44751;52.236;5.178;2023-04-25T09:56:54;101443.97;;;11.86;86.88
58975;BME280;44751;52.236;5.178;2023-04-25T09:59:38;101435.66;;;12.36;86.74
58975;BME280;44751;52.236;5.178;2023-04-25T10:02:07;101443.06;;;11.94;84.14
58975;BME280;44751;52.236;5.178;2023-04-25T10:04:35;101442.53;;;12.16;86.24
58975;BME280;44751;52.236;5.178;2023-04-25T10:07:05;101431.47;;;11.85;85.67
58975;BME280;44751;52.236;5.178;2023-04-25T10:09:33;101446.00;;;12.33;88.24
58975;BME280;44751;52.236;5.178;2023-04-25T10:12:04;101441.31;;;12.58;85.29
58975;BME280;44751;52.236;5.178;2023-04-25T10:14:31;101442.19;;;13.06;85.27
58975;BME280;44751;52.236;5.178;2023-04-25T10:16:59;101443.53;;;12.86;84.83
58975;BME280;44751;52.236;5.178;2023-04-25T10:19:27;101440.28;;;13.53;85.53
58975;BME280;44751;52.236;5.178;2023-04-25T10:22:08;101432.75;;;12.46;86.50
58975;BME280;44751;52.236;5.178;2023-04-25T10:24:38;101436.53;;;12.92;86.37
58975;BME280;44751;52.236;5.178;2023-04-25T10:27:05;101444.88;;;14.28;80.35
58975;BME280;44751;52.236;5.178;2023-04-25T10:29:32;101445.13;;;13.19;80.43
58975;BME280;44751;52.236;5.178;2023-04-25T10:31:59;101452.72;;;14.75;79.34
58975;BME280;44751;52.236;5.178;2023-04-25T10:34:42;101440.09;;;15.04;76.75
58975;BME280;44751;52.236;5.178;2023-04-25T10:37:12;101447.09;;;12.78;80.23
58975;BME280;44751;52.236;5.178;2023-04-25T10:39:40;101477.59;;;11.01;91.38
58975;BME280;44751;52.236;5.178;2023-04-25T10:42:07;101478.31;;;9.81;100.00
58975;BME280;44751;52.236;5.178;2023-04-25T10:44:34;101476.91;;;9.51;100.00
58975;BME280;44751;52.236;5.178;2023-04-25T10:47:03;101471.63;;;9.41;100.00
58975;BME280;44751;52.236;5.178;2023-04-25T10:49:41;101490.41;;;9.33;100.00
58975;BME280;44751;52.236;5.178;2023-04-25T10:52:36;101485.31;;;8.93;100.00
58975;BME280;44751;52.236;5.178;2023-04-25T11:05:53;101502.78;;;9.07;100.00
58975;BME280;44751;52.236;5.178;2023-04-25T11:08:56;101486.13;;;9.22;100.00
58975;BME280;44751;52.236;5.178;2023-04-25T11:11:29;101485.06;;;9.59;100.00
58975;BME280;44751;52.236;5.178;2023-04-25T11:14:25;101489.13;;;9.90;100.00
58975;BME280;44751;52.236;5.178;2023-04-25T11:16:58;101477.53;;;10.24;98.88
58975;BME280;44751;52.236;5.178;2023-04-25T11:19:33;101477.88;;;10.64;97.15
58975;BME280;44751;52.236;5.178;2023-04-25T11:22:01;101475.59;;;11.11;93.77
58975;BME280;44751;52.236;5.178;2023-04-25T11:24:34;101487.59;;;11.58;89.90
58975;BME280;44751;52.236;5.178;2023-04-25T12:58:52;101524.22;;;11.86;77.02
58975;BME280;44751;52.236;5.178;2023-04-25T13:01:28;101523.34;;;12.59;80.38
58975;BME280;44751;52.236;5.178;2023-04-25T13:03:58;101520.88;;;13.36;82.96
58975;BME280;44751;52.236;5.178;2023-04-25T13:06:30;101520.16;;;13.19;80.31
58975;BME280;44751;52.236;5.178;2023-04-25T13:09:06;101521.50;;;12.59;81.60
58975;BME280;44751;52.236;5.178;2023-04-25T13:11:33;101535.22;;;11.59;82.39
58975;BME280;44751;52.236;5.178;2023-04-25T13:14:12;101535.66;;;12.21;83.58
58975;BME280;44751;52.236;5.178;2023-04-25T13:16:43;101528.75;;;12.67;83.33
58975;BME280;44751;52.236;5.178;2023-04-25T13:19:58;101527.75;;;11.95;84.31
58975;BME280;44751;52.236;5.178;2023-04-25T13:22:28;101533.53;;;11.58;85.05
58975;BME280;44751;52.236;5.178;2023-04-25T13:24:59;101529.44;;;11.96;82.05
58975;BME280;44751;52.236;5.178;2023-04-25T13:27:25;101525.72;;;12.05;79.99
58975;BME280;44751;52.236;5.178;2023-04-25T13:29:52;101530.56;;;12.75;79.09
58975;BME280;44751;52.236;5.178;2023-04-25T13:32:24;101524.41;;;12.49;79.38
58975;BME280;44751;52.236;5.178;2023-04-25T13:37:25;101527.63;;;12.85;77.88
58975;BME280;44751;52.236;5.178;2023-04-25T13:39:52;101528.84;;;12.42;78.88
58975;BME280;44751;52.236;5.178;2023-04-25T13:42:23;101532.66;;;11.33;78.67
58975;BME280;44751;52.236;5.178;2023-04-25T13:44:49;101554.25;;;11.08;80.42
58975;BME280;44751;52.236;5.178;2023-04-25T13:47:17;101550.94;;;11.31;80.60
58975;BME280;44751;52.236;5.178;2023-04-25T13:49:43;101550.38;;;11.27;79.59
58975;BME280;44751;52.236;5.178;2023-04-25T13:52:10;101554.97;;;10.75;80.36
58975;BME280;44751;52.236;5.178;2023-04-25T13:54:36;101561.38;;;10.39;82.78
58975;BME280;44751;52.236;5.178;2023-04-25T13:57:05;101561.38;;;11.26;80.97
58975;BME280;44751;52.236;5.178;2023-04-25T13:59:46;101548.38;;;11.79;78.28
58975;BME280;44751;52.236;5.178;2023-04-25T14:02:12;101549.41;;;11.70;78.72
58975;BME280;44751;52.236;5.178;2023-04-25T14:04:43;101559.00;;;11.22;78.98
58975;BME280;44751;52.236;5.178;2023-04-25T14:07:21;101549.13;;;10.45;77.32
58975;BME280;44751;52.236;5.178;2023-04-25T14:09:48;101553.03;;;10.24;78.94
58975;BME280;44751;52.236;5.178;2023-04-25T14:12:25;101565.13;;;10.81;81.22
58975;BME280;44751;52.236;5.178;2023-04-25T14:14:54;101566.22;;;11.05;79.72
58975;BME280;44751;52.236;5.178;2023-04-25T14:17:21;101572.88;;;10.76;80.81
58975;BME280;44751;52.236;5.178;2023-04-25T14:19:57;101579.72;;;10.54;80.03
58975;BME280;44751;52.236;5.178;2023-04-25T14:22:24;101565.53;;;10.52;79.84
58975;BME280;44751;52.236;5.178;2023-04-25T14:24:50;101570.97;;;10.68;79.70
58975;BME280;44751;52.236;5.178;2023-04-25T14:27:17;101560.88;;;11.47;78.74
58975;BME280;44751;52.236;5.178;2023-04-25T14:29:47;101562.41;;;11.58;78.36
58975;BME280;44751;52.236;5.178;2023-04-25T14:32:14;101571.38;;;11.50;76.99
58975;BME280;44751;52.236;5.178;2023-04-25T14:34:41;101567.28;;;12.29;77.11
58975;BME280;44751;52.236;5.178;2023-04-25T14:37:08;101563.66;;;12.53;76.04
58975;BME280;44751;52.236;5.178;2023-04-25T14:39:37;101567.13;;;11.97;77.72
58975;BME280;44751;52.236;5.178;2023-04-25T14:52:34;101588.53;;;12.40;75.80
58975;BME280;44751;52.236;5.178;2023-04-25T14:55:14;101589.47;;;11.74;80.79
58975;BME280;44751;52.236;5.178;2023-04-25T14:57:43;101600.78;;;10.58;82.56
58975;BME280;44751;52.236;5.178;2023-04-25T15:00:24;101595.44;;;10.40;82.54
58975;BME280;44751;52.236;5.178;2023-04-25T15:03:00;101592.44;;;10.17;86.27
58975;BME280;44751;52.236;5.178;2023-04-25T15:05:27;101598.97;;;9.88;84.05
58975;BME280;44751;52.236;5.178;2023-04-25T15:08:05;101611.97;;;9.74;85.29
58975;BME280;44751;52.236;5.178;2023-04-25T15:21:05;101602.97;;;10.90;84.79
58975;BME280;44751;52.236;5.178;2023-04-25T15:26:25;101596.84;;;10.79;83.13
58975;BME280;44751;52.236;5.178;2023-04-25T15:29:07;101594.59;;;10.40;84.40
58975;BME280;44751;52.236;5.178;2023-04-25T15:31:34;101605.72;;;10.10;85.31
58975;BME280;44751;52.236;5.178;2023-04-25T15:34:04;101598.81;;;9.89;87.26
58975;BME280;44751;52.236;5.178;2023-04-25T15:36:31;101611.88;;;9.84;87.08
58975;BME280;44751;52.236;5.178;2023-04-25T15:38:57;101606.00;;;10.07;85.85
58975;BME280;44751;52.236;5.178;2023-04-25T15:41:24;101617.19;;;9.94;86.29
58975;BME280;44751;52.236;5.178;2023-04-25T15:43:51;101622.69;;;9.66;85.22
58975;BME280;44751;52.236;5.178;2023-04-25T15:46:43;101617.84;;;9.51;84.52
58975;BME280;44751;52.236;5.178;2023-04-25T15:49:36;101619.75;;;9.41;85.19
58975;BME280;44751;52.236;5.178;2023-04-25T16:00:18;101615.28;;;9.32;88.64
58975;BME280;44751;52.236;5.178;2023-04-25T16:08:09;101625.25;;;10.12;85.43
58975;BME280;44751;52.236;5.178;2023-04-25T16:10:38;101623.56;;;10.11;85.59
58975;BME280;44751;52.236;5.178;2023-04-25T16:13:07;101619.22;;;9.92;84.53
58975;BME280;44751;52.236;5.178;2023-04-25T16:15:33;101629.38;;;9.62;86.33
58975;BME280;44751;52.236;5.178;2023-04-25T16:18:00;101631.91;;;9.45;85.83
58975;BME280;44751;52.236;5.178;2023-04-25T16:20:43;101626.06;;;9.50;85.02
58975;BME280;44751;52.236;5.178;2023-04-25T16:33:30;101633.94;;;10.24;84.45
58975;BME280;44751;52.236;5.178;2023-04-25T16:36:00;101628.06;;;10.29;83.08
58975;BME280;44751;52.236;5.178;2023-04-25T16:38:26;101638.59;;;10.40;83.95
58975;BME280;44751;52.236;5.178;2023-04-25T16:46:03;101639.06;;;10.09;85.88
58975;BME280;44751;52.236;5.178;2023-04-25T16:48:35;101635.25;;;9.75;85.92
58975;BME280;44751;52.236;5.178;2023-04-25T16:51:15;101632.81;;;10.08;85.37
58975;BME280;44751;52.236;5.178;2023-04-25T16:53:42;101643.16;;;10.13;85.54
58975;BME280;44751;52.236;5.178;2023-04-25T16:56:14;101635.97;;;10.04;84.28
58975;BME280;44751;52.236;5.178;2023-04-25T16:58:47;101633.00;;;9.89;85.11
58975;BME280;44751;52.236;5.178;2023-04-25T17:01:14;101630.38;;;9.79;90.25
58975;BME280;44751;52.236;5.178;2023-04-25T17:03:47;101633.16;;;9.51;87.21
58975;BME280;44751;52.236;5.178;2023-04-25T17:06:31;101654.59;;;9.24;87.96
58975;BME280;44751;52.236;5.178;2023-04-25T17:08:59;101652.47;;;9.00;86.19
58975;BME280;44751;52.236;5.178;2023-04-25T17:11:25;101657.50;;;8.75;85.64
58975;BME280;44751;52.236;5.178;2023-04-25T17:13:54;101657.59;;;8.83;87.73
58975;BME280;44751;52.236;5.178;2023-04-25T18:11:41;101695.06;;;8.27;94.71
58975;BME280;44751;52.236;5.178;2023-04-25T18:14:07;101696.22;;;8.05;94.46
58975;BME280;44751;52.236;5.178;2023-04-25T18:16:43;101703.31;;;8.06;95.84
58975;BME280;44751;52.236;5.178;2023-04-25T18:19:10;101711.94;;;7.99;95.54
58975;BME280;44751;52.236;5.178;2023-04-25T18:21:43;101701.75;;;7.83;96.26
58975;BME280;44751;52.236;5.178;2023-04-25T18:24:11;101706.41;;;7.81;98.04
58975;BME280;44751;52.236;5.178;2023-04-25T18:26:38;101716.28;;;7.81;99.03
58975;BME280;44751;52.236;5.178;2023-04-25T18:29:06;101709.06;;;7.71;99.63
58975;BME280;44751;52.236;5.178;2023-04-25T18:31:44;101721.19;;;7.56;99.86
58975;BME280;44751;52.236;5.178;2023-04-25T18:34:24;101708.63;;;7.56;100.00
58975;BME280;44751;52.236;5.178;2023-04-25T18:36:50;101717.09;;;7.52;100.00
58975;BME280;44751;52.236;5.178;2023-04-25T18:39:25;101727.97;;;7.50;100.00
58975;BME280;44751;52.236;5.178;2023-04-25T18:41:52;101728.38;;;7.45;100.00
58975;BME280;44751;52.236;5.178;2023-04-25T18:44:21;101734.72;;;7.34;100.00
58975;BME280;44751;52.236;5.178;2023-04-25T18:46:48;101727.78;;;7.42;100.00
58975;BME280;44751;52.236;5.178;2023-04-25T18:49:14;101730.88;;;7.27;100.00
58975;BME280;44751;52.236;5.178;2023-04-25T18:51:43;101731.00;;;7.26;100.00
58975;BME280;44751;52.236;5.178;2023-04-25T18:54:09;101732.44;;;7.30;100.00
58975;BME280;44751;52.236;5.178;2023-04-25T18:59:09;101733.66;;;7.16;100.00
58975;BME280;44751;52.236;5.178;2023-04-25T19:04:20;101726.03;;;6.90;100.00
58975;BME280;44751;52.236;5.178;2023-04-25T19:06:52;101744.69;;;6.91;100.00
58975;BME280;44751;52.236;5.178;2023-04-25T19:09:21;101725.09;;;6.69;100.00
58975;BME280;44751;52.236;5.178;2023-04-25T20:01:21;101759.94;;;6.15;100.00
58975;BME280;44751;52.236;5.178;2023-04-25T20:03:50;101766.03;;;6.17;100.00
58975;BME280;44751;52.236;5.178;2023-04-25T20:06:17;101764.25;;;6.06;100.00
58975;BME280;44751;52.236;5.178;2023-04-25T20:08:43;101762.16;;;6.10;100.00
58975;BME280;44751;52.236;5.178;2023-04-25T20:11:11;101764.72;;;6.00;100.00
58975;BME280;44751;52.236;5.178;2023-04-25T20:13:37;101766.69;;;5.98;100.00
58975;BME280;44751;52.236;5.178;2023-04-25T20:16:15;101762.16;;;5.99;100.00
58975;BME280;44751;52.236;5.178;2023-04-25T20:18:45;101764.00;;;5.98;100.00
58975;BME280;44751;52.236;5.178;2023-04-25T21:11:29;101764.59;;;5.00;100.00
58975;BME280;44751;52.236;5.178;2023-04-25T21:13:55;101763.72;;;5.00;100.00
58975;BME280;44751;52.236;5.178;2023-04-25T21:16:22;101760.44;;;5.08;100.00
58975;BME280;44751;52.236;5.178;2023-04-25T21:21:31;101755.06;;;4.96;100.00
58975;BME280;44751;52.236;5.178;2023-04-25T21:23:57;101761.03;;;4.88;100.00
58975;BME280;44751;52.236;5.178;2023-04-25T21:26:24;101760.19;;;4.99;100.00
58975;BME280;44751;52.236;5.178;2023-04-25T21:28:53;101765.38;;;4.89;100.00
58975;BME280;44751;52.236;5.178;2023-04-25T21:31:21;101762.47;;;4.81;100.00
58975;BME280;44751;52.236;5.178;2023-04-25T21:33:47;101771.31;;;4.70;100.00
58975;BME280;44751;52.236;5.178;2023-04-25T21:36:13;101771.56;;;4.78;100.00
58975;BME280;44751;52.236;5.178;2023-04-25T21:38:41;101762.06;;;4.63;100.00
58975;BME280;44751;52.236;5.178;2023-04-25T21:41:14;101761.69;;;4.56;100.00
58975;BME280;44751;52.236;5.178;2023-04-25T21:43:41;101768.75;;;4.69;100.00
58975;BME280;44751;52.236;5.178;2023-04-25T21:46:09;101768.13;;;4.54;100.00
58975;BME280;44751;52.236;5.178;2023-04-25T21:48:35;101758.41;;;4.64;100.00
58975;BME280;44751;52.236;5.178;2023-04-25T21:51:02;101757.28;;;4.44;100.00
58975;BME280;44751;52.236;5.178;2023-04-25T21:53:33;101767.84;;;4.45;100.00
58975;BME280;44751;52.236;5.178;2023-04-25T21:56:00;101769.63;;;4.69;100.00
58975;BME280;44751;52.236;5.178;2023-04-25T21:58:30;101762.22;;;4.37;100.00
58975;BME280;44751;52.236;5.178;2023-04-25T22:01:02;101772.91;;;4.37;100.00
58975;BME280;44751;52.236;5.178;2023-04-25T22:03:32;101764.91;;;4.37;100.00
58975;BME280;44751;52.236;5.178;2023-04-25T22:05:59;101772.38;;;4.32;100.00
58975;BME280;44751;52.236;5.178;2023-04-25T22:08:25;101785.53;;;4.35;100.00
58975;BME280;44751;52.236;5.178;2023-04-25T22:10:55;101781.38;;;4.31;100.00
58975;BME280;44751;52.236;5.178;2023-04-25T22:13:26;101778.66;;;4.19;100.00
58975;BME280;44751;52.236;5.178;2023-04-25T22:15:55;101791.66;;;4.48;100.00
58975;BME280;44751;52.236;5.178;2023-04-25T22:18:23;101790.97;;;4.58;100.00
58975;BME280;44751;52.236;5.178;2023-04-25T22:20:49;101800.69;;;4.59;100.00
58975;BME280;44751;52.236;5.178;2023-04-25T22:23:19;101793.47;;;4.48;100.00
58975;BME280;44751;52.236;5.178;2023-04-25T22:25:48;101805.81;;;4.62;100.00
58975;BME280;44751;52.236;5.178;2023-04-25T22:28:14;101788.03;;;4.49;100.00
58975;BME280;44751;52.236;5.178;2023-04-25T22:30:41;101801.38;;;4.49;100.00
58975;BME280;44751;52.236;5.178;2023-04-25T22:33:08;101802.09;;;4.51;100.00
58975;BME280;44751;52.236;5.178;2023-04-25T22:35:41;101788.78;;;4.63;100.00
58975;BME280;44751;52.236;5.178;2023-04-25T22:38:08;101795.09;;;4.62;100.00
58975;BME280;44751;52.236;5.178;2023-04-25T22:40:37;101807.03;;;4.69;100.00
58975;BME280;44751;52.236;5.178;2023-04-25T22:43:04;101800.50;;;4.73;100.00
58975;BME280;44751;52.236;5.178;2023-04-25T22:45:39;101806.09;;;4.82;100.00
58975;BME280;44751;52.236;5.178;2023-04-25T22:48:10;101798.94;;;4.94;100.00
58975;BME280;44751;52.236;5.178;2023-04-25T22:50:36;101807.00;;;5.05;100.00
58975;BME280;44751;52.236;5.178;2023-04-25T22:53:13;101820.41;;;5.16;100.00
58975;BME280;44751;52.236;5.178;2023-04-25T22:55:40;101808.94;;;5.14;100.00
58975;BME280;44751;52.236;5.178;2023-04-25T22:58:08;101822.84;;;5.31;100.00
58975;BME280;44751;52.236;5.178;2023-04-25T23:00:36;101815.91;;;5.28;100.00
58975;BME280;44751;52.236;5.178;2023-04-25T23:03:03;101820.91;;;5.33;100.00
58975;BME280;44751;52.236;5.178;2023-04-25T23:05:29;101817.00;;;5.26;100.00
58975;BME280;44751;52.236;5.178;2023-04-25T23:07:56;101812.50;;;5.26;100.00
58975;BME280;44751;52.236;5.178;2023-04-25T23:10:23;101806.16;;;5.04;100.00
58975;BME280;44751;52.236;5.178;2023-04-25T23:12:49;101811.09;;;4.98;100.00
58975;BME280;44751;52.236;5.178;2023-04-25T23:15:16;101814.19;;;5.04;100.00
58975;BME280;44751;52.236;5.178;2023-04-25T23:17:43;101817.78;;;4.92;100.00
58975;BME280;44751;52.236;5.178;2023-04-25T23:20:14;101817.81;;;5.03;100.00
58975;BME280;44751;52.236;5.178;2023-04-25T23:22:41;101811.25;;;5.08;100.00
58975;BME280;44751;52.236;5.178;2023-04-25T23:25:08;101816.28;;;5.24;100.00
58975;BME280;44751;52.236;5.178;2023-04-25T23:27:34;101809.94;;;5.13;100.00
58975;BME280;44751;52.236;5.178;2023-04-25T23:30:01;101809.75;;;4.92;100.00
58975;BME280;44751;52.236;5.178;2023-04-25T23:32:27;101804.28;;;4.94;100.00
58975;BME280;44751;52.236;5.178;2023-04-25T23:34:54;101811.59;;;4.91;100.00
58975;BME280;44751;52.236;5.178;2023-04-25T23:37:20;101806.25;;;4.91;100.00
58975;BME280;44751;52.236;5.178;2023-04-25T23:39:48;101814.25;;;4.80;100.00
58975;BME280;44751;52.236;5.178;2023-04-25T23:42:15;101811.88;;;4.64;100.00
58975;BME280;44751;52.236;5.178;2023-04-25T23:44:43;101812.69;;;4.53;100.00
58975;BME280;44751;52.236;5.178;2023-04-25T23:47:09;101808.66;;;4.47;100.00
58975;BME280;44751;52.236;5.178;2023-04-25T23:49:38;101809.34;;;4.38;100.00
58975;BME280;44751;52.236;5.178;2023-04-25T23:52:05;101804.91;;;4.25;100.00
58975;BME280;44751;52.236;5.178;2023-04-25T23:54:31;101813.16;;;4.22;100.00
58975;BME280;44751;52.236;5.178;2023-04-25T23:56:58;101806.50;;;4.04;100.00
58975;BME280;44751;52.236;5.178;2023-04-25T23:59:24;101796.22;;;4.10;100.00
